createdAt,value
2022-09-06T00:01:49.541Z,82.49
2022-09-06T00:04:57.973Z,82.20
2022-09-06T00:08:07.633Z,82.43
2022-09-06T00:11:18.612Z,82.47
2022-09-06T00:14:28.408Z,82.62
2022-09-06T00:17:37.018Z,81.90
2022-09-06T00:20:45.471Z,81.80
2022-09-06T00:23:54.327Z,82.46
2022-09-06T00:27:02.458Z,82.00
2022-09-06T00:30:14.317Z,82.52
2022-09-06T00:33:22.787Z,82.82
2022-09-06T00:36:31.541Z,82.14
2022-09-06T00:39:40.401Z,82.19
2022-09-06T00:42:49.342Z,81.89
2022-09-06T00:45:59.936Z,82.32
2022-09-06T00:49:17.188Z,82.55
2022-09-06T00:52:29.000Z,82.03
2022-09-06T00:55:37.741Z,81.24
2022-09-06T00:58:47.000Z,81.79
2022-09-06T01:01:57.061Z,81.67
2022-09-06T01:05:09.957Z,81.58
2022-09-06T01:08:39.719Z,81.45
2022-09-06T01:12:15.171Z,81.68
2022-09-06T01:15:40.963Z,81.40
2022-09-06T01:19:25.103Z,81.41
2022-09-06T01:23:16.980Z,81.46
2022-09-06T01:27:06.225Z,81.76
2022-09-06T01:30:20.500Z,81.61
2022-09-06T01:33:42.589Z,80.63
2022-09-06T01:37:09.946Z,81.48
2022-09-06T01:40:19.299Z,81.51
2022-09-06T01:43:36.535Z,82.27
2022-09-06T01:46:58.240Z,82.33
2022-09-06T01:50:39.346Z,81.97
2022-09-06T01:54:17.634Z,82.65
2022-09-06T01:57:51.747Z,82.92
2022-09-06T02:01:12.016Z,83.18
2022-09-06T02:04:29.502Z,83.48
2022-09-06T02:07:41.806Z,83.11
2022-09-06T02:10:58.000Z,83.27
2022-09-06T02:14:12.956Z,83.69
2022-09-06T02:17:28.115Z,83.15
2022-09-06T02:20:45.167Z,83.68
2022-09-06T02:23:57.189Z,83.44
2022-09-06T02:27:05.820Z,83.82
2022-09-06T02:30:14.959Z,83.63
2022-09-06T02:33:29.997Z,83.09
2022-09-06T02:36:40.073Z,83.64
2022-09-06T02:39:48.273Z,83.48
2022-09-06T02:42:56.526Z,83.70
2022-09-06T02:46:04.766Z,84.08
2022-09-06T02:49:12.932Z,83.03
2022-09-06T02:52:22.488Z,83.42
2022-09-06T02:55:30.725Z,82.96
2022-09-06T02:58:40.070Z,83.31
2022-09-06T03:01:48.337Z,83.30
2022-09-06T03:04:56.487Z,83.26
2022-09-06T03:08:06.485Z,83.36
2022-09-06T03:11:15.076Z,83.74
2022-09-06T03:14:23.222Z,83.75
2022-09-06T03:17:31.424Z,83.62
2022-09-06T03:20:39.700Z,83.60
2022-09-06T03:23:49.664Z,84.87
2022-09-06T03:26:58.129Z,84.61
2022-09-06T03:30:08.632Z,84.69
2022-09-06T03:33:17.539Z,84.41
2022-09-06T03:36:26.020Z,84.24
2022-09-06T03:39:35.786Z,83.68
2022-09-06T03:57:32.357Z,84.53
2022-09-06T04:00:40.570Z,84.53
2022-09-06T04:03:49.035Z,83.42
2022-09-06T04:06:57.353Z,83.31
2022-09-06T04:10:07.123Z,84.11
2022-09-06T04:13:17.331Z,84.44
2022-09-06T04:16:26.023Z,84.21
2022-09-06T04:19:37.158Z,84.34
2022-09-06T04:22:46.816Z,84.75
2022-09-06T04:25:58.871Z,84.22
2022-09-06T04:29:09.065Z,84.25
2022-09-06T04:32:17.239Z,84.71
2022-09-06T04:35:26.591Z,83.63
2022-09-06T04:38:40.827Z,84.14
2022-09-06T04:41:49.393Z,84.14
2022-09-06T04:44:59.321Z,84.30
2022-09-06T04:48:08.298Z,83.63
2022-09-06T04:51:17.547Z,82.96
2022-09-06T04:54:26.674Z,82.74
2022-09-06T04:57:35.227Z,82.41
2022-09-06T05:00:47.269Z,82.37
2022-09-06T05:03:57.074Z,82.34
2022-09-06T05:07:08.209Z,82.67
2022-09-06T05:10:16.429Z,82.08
2022-09-06T05:13:24.925Z,81.74
2022-09-06T05:16:34.968Z,81.92
2022-09-06T05:19:44.748Z,81.81
2022-09-06T05:22:56.373Z,82.17
2022-09-06T05:26:05.793Z,82.49
2022-09-06T05:29:15.094Z,82.16
2022-09-06T05:32:24.807Z,81.65
2022-09-06T05:35:33.713Z,81.57
2022-09-06T05:38:42.279Z,81.70
2022-09-06T05:41:55.246Z,80.89
2022-09-06T05:45:03.618Z,80.31
2022-09-06T05:48:13.515Z,79.92
2022-09-06T05:51:21.801Z,79.76
2022-09-06T05:54:30.249Z,80.19
2022-09-06T05:57:39.153Z,79.55
2022-09-06T06:00:47.979Z,78.00
2022-09-06T06:04:02.335Z,75.22
2022-09-06T06:07:10.804Z,72.25
2022-09-06T06:10:19.150Z,72.29
2022-09-06T06:13:29.770Z,72.59
2022-09-06T06:16:38.494Z,72.71
2022-09-06T06:19:48.222Z,72.10
2022-09-06T06:22:56.714Z,72.71
2022-09-06T06:26:05.462Z,72.27
2022-09-06T06:29:14.554Z,71.26
2022-09-06T06:32:22.946Z,70.44
2022-09-06T06:35:33.223Z,69.52
2022-09-06T06:38:45.882Z,66.17
2022-09-06T06:41:54.524Z,64.71
2022-09-06T06:45:09.560Z,64.80
2022-09-06T06:48:18.319Z,62.26
2022-09-06T06:51:30.793Z,58.12
2022-09-06T06:54:39.325Z,54.11
2022-09-06T06:57:47.519Z,54.83
2022-09-06T07:00:56.029Z,59.11
2022-09-06T07:04:05.316Z,59.84
2022-09-06T07:07:30.266Z,61.60
2022-09-06T07:14:16.007Z,62.00
2022-09-06T07:17:24.848Z,63.72
2022-09-06T07:30:43.392Z,60.46
2022-09-06T07:33:55.191Z,60.08
2022-09-06T07:37:04.660Z,59.34
2022-09-06T07:40:17.800Z,59.45
2022-09-06T07:43:27.594Z,59.96
2022-09-06T07:46:36.538Z,60.11
2022-09-06T07:53:24.680Z,63.82
2022-09-06T07:56:40.513Z,65.80
2022-09-06T07:59:49.041Z,66.78
2022-09-06T08:02:57.445Z,68.31
2022-09-06T08:09:15.040Z,71.00
2022-09-06T08:12:27.765Z,71.23
2022-09-06T08:15:36.650Z,71.58
2022-09-06T08:18:46.161Z,72.36
2022-09-06T08:21:56.442Z,71.59
2022-09-06T08:25:05.421Z,71.63
2022-09-06T08:28:16.138Z,72.77
2022-09-06T08:31:25.011Z,71.79
2022-09-06T08:34:33.892Z,72.26
2022-09-06T08:37:42.570Z,72.39
2022-09-06T08:40:52.484Z,72.19
2022-09-06T08:47:36.703Z,63.19
2022-09-06T08:51:06.877Z,57.39
2022-09-06T08:54:26.783Z,55.36
2022-09-06T08:57:56.417Z,53.96
2022-09-06T09:01:15.901Z,54.21
2022-09-06T09:04:29.788Z,55.27
2022-09-06T09:07:46.698Z,56.41
2022-09-06T09:11:01.985Z,56.73
2022-09-06T09:14:18.014Z,59.45
2022-09-06T09:17:32.808Z,58.57
2022-09-06T09:20:41.589Z,60.17
2022-09-06T09:23:55.453Z,60.22
2022-09-06T09:27:11.191Z,60.47
2022-09-06T09:33:50.696Z,59.92
2022-09-06T09:40:55.871Z,60.76
2022-09-06T09:44:10.497Z,61.67
2022-09-06T09:47:28.439Z,62.32
2022-09-06T09:50:38.020Z,63.39
2022-09-06T09:53:54.334Z,63.39
2022-09-06T09:57:04.477Z,62.30
2022-09-06T10:00:14.610Z,61.71
2022-09-06T10:03:34.654Z,60.57
2022-09-06T10:10:26.318Z,59.41
2022-09-06T10:13:36.630Z,59.79
2022-09-06T10:16:47.181Z,60.59
2022-09-06T10:19:56.766Z,59.29
2022-09-06T10:23:17.587Z,58.54
2022-09-06T10:26:38.584Z,57.20
2022-09-06T10:29:58.444Z,53.84
2022-09-06T10:33:17.578Z,53.14
2022-09-06T10:36:35.975Z,52.57
2022-09-06T10:39:56.860Z,51.67
2022-09-06T10:43:14.937Z,51.19
2022-09-06T10:46:29.407Z,48.33
2022-09-06T10:49:43.376Z,49.41
2022-09-06T10:53:07.979Z,49.05
2022-09-06T10:56:26.740Z,49.25
2022-09-06T10:59:41.947Z,50.12
2022-09-06T11:06:46.253Z,46.14
2022-09-06T11:10:04.167Z,46.43
2022-09-06T11:13:19.374Z,45.46
2022-09-06T11:16:39.534Z,47.03
2022-09-06T11:19:59.928Z,48.11
2022-09-06T11:23:44.967Z,45.76
2022-09-06T11:27:07.137Z,46.49
2022-09-06T11:30:20.215Z,45.40
2022-09-06T11:33:35.499Z,46.08
2022-09-06T11:36:50.857Z,45.52
2022-09-06T11:40:30.406Z,46.06
2022-09-06T11:43:49.772Z,45.78
2022-09-06T11:47:07.592Z,46.67
2022-09-06T11:51:03.493Z,44.93
2022-09-06T11:54:29.923Z,47.26
2022-09-06T11:57:43.246Z,45.17
2022-09-06T12:01:36.118Z,45.56
2022-09-06T12:05:18.787Z,46.65
2022-09-06T12:08:35.571Z,44.78
2022-09-06T12:11:45.794Z,43.59
2022-09-06T12:14:54.088Z,43.37
2022-09-06T12:18:02.489Z,44.39
2022-09-06T12:21:52.292Z,43.96
2022-09-06T12:25:03.544Z,42.11
2022-09-06T12:28:25.172Z,44.66
2022-09-06T12:31:40.333Z,44.04
2022-09-06T12:38:26.068Z,42.00
2022-09-06T12:41:43.462Z,43.86
2022-09-06T12:44:56.528Z,43.97
2022-09-06T12:48:09.641Z,44.01
2022-09-06T12:51:23.509Z,44.11
2022-09-06T12:54:33.666Z,43.26
2022-09-06T12:57:51.327Z,43.86
2022-09-06T13:01:10.799Z,43.12
2022-09-06T13:04:30.503Z,46.14
2022-09-06T13:07:46.126Z,46.93
2022-09-06T13:10:56.615Z,45.73
2022-09-06T13:14:14.694Z,45.09
2022-09-06T13:17:29.965Z,46.19
2022-09-06T13:20:38.652Z,44.46
2022-09-06T13:23:51.012Z,47.27
2022-09-06T13:27:00.889Z,45.04
2022-09-06T13:30:11.944Z,45.12
2022-09-06T13:33:25.708Z,45.61
2022-09-06T13:36:35.016Z,46.28
2022-09-06T13:39:44.912Z,45.78
2022-09-06T13:43:02.352Z,47.11
2022-09-06T13:46:12.587Z,46.48
2022-09-06T13:49:20.790Z,45.89
2022-09-06T13:52:29.310Z,46.23
2022-09-06T13:55:37.762Z,45.40
2022-09-06T13:58:47.641Z,46.71
2022-09-06T14:02:03.169Z,46.77
2022-09-06T14:05:12.148Z,46.64
2022-09-06T14:08:21.225Z,45.31
2022-09-06T14:11:29.945Z,43.37
2022-09-06T14:14:39.856Z,43.33
2022-09-06T14:17:48.579Z,45.01
2022-09-06T14:20:59.051Z,44.41
2022-09-06T14:24:08.664Z,43.38
2022-09-06T14:27:18.159Z,43.67
2022-09-06T14:30:27.740Z,44.62
2022-09-06T14:33:36.436Z,44.91
2022-09-06T14:36:44.968Z,44.76
2022-09-06T14:39:54.026Z,43.43
2022-09-06T14:43:03.297Z,45.18
2022-09-06T14:46:18.210Z,44.37
2022-09-06T14:49:26.812Z,43.70
2022-09-06T14:52:35.261Z,45.28
2022-09-06T14:55:43.621Z,44.76
2022-09-06T14:58:51.988Z,44.60
2022-09-06T15:02:01.919Z,45.68
2022-09-06T15:05:10.600Z,44.72
2022-09-06T15:08:19.317Z,46.37
2022-09-06T15:11:34.559Z,44.68
2022-09-06T15:14:43.360Z,45.23
2022-09-06T15:17:52.956Z,45.47
2022-09-06T15:21:10.312Z,44.42
2022-09-06T15:24:19.776Z,45.47
2022-09-06T15:27:29.006Z,45.86
2022-09-06T15:30:40.028Z,44.43
2022-09-06T15:33:51.927Z,45.40
2022-09-06T15:37:02.455Z,47.52
2022-09-06T15:40:11.850Z,47.14
2022-09-06T15:43:20.996Z,45.57
2022-09-06T15:46:49.956Z,44.52
2022-09-06T15:49:59.490Z,45.50
2022-09-06T15:53:08.941Z,45.80
2022-09-06T15:56:19.519Z,47.13
2022-09-06T15:59:28.014Z,50.10
2022-09-06T16:02:36.626Z,49.55
2022-09-06T16:09:17.541Z,50.43
2022-09-06T16:12:25.822Z,50.40
2022-09-06T16:15:34.789Z,51.16
2022-09-06T16:18:46.589Z,50.56
2022-09-06T16:21:56.108Z,50.45
2022-09-06T16:25:05.392Z,49.71
2022-09-06T16:28:13.890Z,50.15
2022-09-06T16:31:24.172Z,50.46
2022-09-06T16:34:34.485Z,50.44
2022-09-06T16:37:44.093Z,50.29
2022-09-06T16:40:52.488Z,51.31
2022-09-06T16:44:01.236Z,51.39
2022-09-06T16:47:12.552Z,52.08
2022-09-06T16:50:23.709Z,51.55
2022-09-06T16:53:34.209Z,51.55
2022-09-06T16:56:42.878Z,51.58
2022-09-06T16:59:51.447Z,52.11
2022-09-06T17:02:59.851Z,52.77
2022-09-06T17:06:09.523Z,53.27
2022-09-06T17:09:20.837Z,53.54
2022-09-06T17:12:30.778Z,53.97
2022-09-06T17:15:53.077Z,54.79
2022-09-06T17:19:02.937Z,55.07
2022-09-06T17:22:12.715Z,55.33
2022-09-06T17:25:22.728Z,55.09
2022-09-06T17:28:35.190Z,54.92
2022-09-06T17:31:43.727Z,55.19
2022-09-06T17:34:51.991Z,57.25
2022-09-06T17:38:00.212Z,57.77
2022-09-06T17:41:20.294Z,58.10
2022-09-06T17:44:29.021Z,58.83
2022-09-06T17:47:37.653Z,59.25
2022-09-06T17:50:46.292Z,59.29
2022-09-06T17:53:56.637Z,59.64
2022-09-06T17:57:06.325Z,61.24
2022-09-06T18:00:16.009Z,61.58
2022-09-06T18:03:24.408Z,62.11
2022-09-06T18:06:34.515Z,61.80
2022-09-06T18:09:42.977Z,62.22
2022-09-06T18:12:53.559Z,62.86
2022-09-06T18:16:03.591Z,63.13
2022-09-06T18:19:12.586Z,62.18
2022-09-06T18:22:20.876Z,60.79
2022-09-06T18:25:29.610Z,61.07
2022-09-06T18:28:39.611Z,60.60
2022-09-06T18:31:48.071Z,61.54
2022-09-06T18:34:56.478Z,61.60
2022-09-06T18:38:04.643Z,61.77
2022-09-06T18:41:29.709Z,62.02
2022-09-06T18:44:40.566Z,63.22
2022-09-06T18:47:49.277Z,64.05
2022-09-06T18:50:59.857Z,64.59
2022-09-06T18:54:09.119Z,63.57
2022-09-06T18:57:17.360Z,64.48
2022-09-06T19:00:29.157Z,64.90
2022-09-06T19:03:39.518Z,64.52
2022-09-06T19:06:47.955Z,65.64
2022-09-06T19:09:56.512Z,65.71
2022-09-06T19:13:04.852Z,65.04
2022-09-06T19:16:15.482Z,65.96
2022-09-06T19:19:24.432Z,66.83
2022-09-06T19:22:33.177Z,67.17
2022-09-06T19:25:41.336Z,67.01
2022-09-06T19:28:53.270Z,66.73
2022-09-06T19:32:03.571Z,67.32
2022-09-06T19:35:12.709Z,67.61
2022-09-06T19:38:21.233Z,67.23
2022-09-06T19:41:32.292Z,67.71
2022-09-06T19:44:40.522Z,68.19
2022-09-06T19:47:50.816Z,68.08
2022-09-06T19:51:02.703Z,68.18
2022-09-06T19:54:10.869Z,68.27
2022-09-06T19:57:19.170Z,68.51
2022-09-06T20:00:31.287Z,69.30
2022-09-06T20:03:43.293Z,68.19
2022-09-06T20:06:51.491Z,68.38
2022-09-06T20:09:59.932Z,69.32
2022-09-06T20:13:08.287Z,69.80
2022-09-06T20:16:20.411Z,70.14
2022-09-06T20:19:30.681Z,70.24
2022-09-06T20:22:39.024Z,70.09
2022-09-06T20:25:48.092Z,69.61
2022-09-06T20:28:58.011Z,69.70
2022-09-06T20:32:06.409Z,68.84
2022-09-06T20:35:17.019Z,69.05
2022-09-06T20:38:26.030Z,69.26
2022-09-06T20:41:35.250Z,68.56
2022-09-06T20:44:44.054Z,69.13
2022-09-06T20:47:56.216Z,69.54
2022-09-06T20:51:09.812Z,69.53
2022-09-06T20:54:18.113Z,69.95
2022-09-06T20:57:26.548Z,70.24
2022-09-06T21:00:34.991Z,69.82
2022-09-06T21:03:44.183Z,70.44
2022-09-06T21:06:54.171Z,70.89
2022-09-06T21:10:02.398Z,70.86
2022-09-06T21:13:11.378Z,71.33
2022-09-06T21:16:24.313Z,71.20
2022-09-06T21:19:36.606Z,70.96
2022-09-06T21:22:46.342Z,71.75
2022-09-06T21:25:56.929Z,71.98
2022-09-06T21:29:11.151Z,72.27
2022-09-06T21:32:19.833Z,72.91
2022-09-06T21:35:28.656Z,72.75
2022-09-06T21:38:43.956Z,73.38
2022-09-06T21:41:52.612Z,73.50
2022-09-06T21:45:00.785Z,73.54
2022-09-06T21:48:09.667Z,73.77
2022-09-06T21:51:27.426Z,73.84
2022-09-06T21:54:37.598Z,74.32
2022-09-06T21:57:48.649Z,74.55
2022-09-06T22:00:59.750Z,75.07
2022-09-06T22:04:09.820Z,74.65
2022-09-06T22:07:18.963Z,74.63
2022-09-06T22:10:28.896Z,74.78
2022-09-06T22:13:37.235Z,74.74
2022-09-06T22:16:45.569Z,75.60
2022-09-06T22:19:54.382Z,75.41
2022-09-06T22:23:03.706Z,75.67
2022-09-06T22:26:14.164Z,75.76
2022-09-06T22:29:22.361Z,75.88
2022-09-06T22:32:30.837Z,75.83
2022-09-06T22:35:38.952Z,76.03
2022-09-06T22:38:47.465Z,76.33
2022-09-06T22:42:00.745Z,76.10
2022-09-06T22:45:10.314Z,76.96
2022-09-06T22:48:18.911Z,78.97
2022-09-06T22:51:31.731Z,78.49
2022-09-06T22:54:40.629Z,78.18
2022-09-06T22:57:50.339Z,77.73
2022-09-06T23:01:06.911Z,77.90
2022-09-06T23:04:15.188Z,78.69
2022-09-06T23:07:23.443Z,78.13
2022-09-06T23:10:32.599Z,76.85
2022-09-06T23:13:44.214Z,75.72
2022-09-06T23:16:52.827Z,76.52
2022-09-06T23:20:01.455Z,77.07
2022-09-06T23:23:09.841Z,76.75
2022-09-06T23:26:22.271Z,77.33
2022-09-06T23:29:31.793Z,78.20
2022-09-06T23:32:40.415Z,78.37
2022-09-06T23:35:49.080Z,79.37
2022-09-06T23:38:58.205Z,79.49
2022-09-06T23:42:06.546Z,80.00
2022-09-06T23:45:16.248Z,80.24
2022-09-06T23:48:24.913Z,79.56
2022-09-06T23:51:33.649Z,80.06
2022-09-06T23:54:41.776Z,79.68
2022-09-06T23:57:50.088Z,79.39
